Preston, CT (06365)

7:22 PM EST on December 25, 2014 (GMT -0500)
Windward Lane | Change Station
CLOSE
Current Station
Personal Weather Station
Location: Ledyard, CT
Elevation: 177 ft
Nearby Weather Stations

Elev 177 ft 41.48 °N, 72.04 °W | Updated 7 minutes ago

Clear
Clear
41.7 °F
Feels Like 42 °F
N
2.7
Wind Variable Wind from South

Today
High -- | Low -- °F
--% Chance of Precip.
Yesterday
High -- | Low -- °F
Precip. -- in
7:12 AM 4:23 PM
Waxing Crescent, 20% visible
Pressure 29.91 in
Visibility 9.0 miles
Clouds Clear
Windchill 42 °F
Dew Point 34 °F
Humidity 74%
Rainfall 0.22 in
Snow Depth Not available.
UV 0 out of 12
Pollen .10 out of 12
Air Quality Not available.
Flu Activity Not available.
METAR KGON 252356Z 26009KT 9SM CLR 08/M01 A2991 RMK AO2 SLP127 T00781011 10117 20072 51036

More Conditions Fewer Conditions

Pressure 29.91 in
Visibility 9.0 miles
Clouds Clear
Windchill 42 °F
Dew Point 34 °F
Humidity 74%
Rainfall 0.22 in
Snow Depth Not available.
UV 0 out of 12
Pollen .10 out of 12
Air Quality Not available.
Flu Activity Not available.
METAR KGON 252356Z 26009KT 9SM CLR 08/M01 A2991 RMK AO2 SLP127 T00781011 10117 20072 51036

More Conditions Fewer Conditions

10-Day Weather Forecast

Almanac

Astronomy

Dec. 25, 2014 Rise Set
Actual Time
Civil Twilight
Nautical Twilight
Astronomical Twilight
Moon
Length of Visible Light
Length of Day
Tomorrow will be .
, % of the Moon is Illuminated

Today's Extremes

State Highs State Lows

Community

WunderPhotos

Upload Photos

1,780,474 photos uploaded!

WunderBlogs® & News

Nearby

Air Quality

  Air Quality AQ Index Pollutant
Not available.

Snow Depth

Station Depth Elevation

Earthquake Activity

City Distance Mag. Time & Date
Minimum magnitude displayed is 2.5.

Coastal Water Temperatures

Place Temperature

Nearby Weather Stations